Corpus Christi Naval Air Station/Truax Field
KNGP : now visible

Airfield :











YOU CAN JOIN US ON...

 
LOGIN :

Register | Disclaimer

   EN    FR    IT 

 









Legend :    VFR   Marginal VFR   IFR   Intensive IFR   Very Intensive IFR
Visi :
Ceiling :
>= 8 km
>= 3000ft
5 to 8 km
1000 to 3000 ft
1500m to 5 km
500 to 1000 ft
800 to 1500m
200 to 500 ft
< 800m
< 200 ft
Symbols :   Thunderstorms  Fog  Heavy snow  Heavy precipitations  Wind > 20 kt






- Airport Elevation : 18 ft


KNGP - Corpus Christi Naval Air Station/Truax Field

CURRENT METAR :
  • 141256Z 34011KT 10SM OVC006 08/08 A3015 RMK AO2 SLP207 T00780078

EXPIRED METARs :
  • 141156Z 02013KT 10SM BKN006 OVC009 08/08 A3011 RMK AO2 RAE17 SLP195 P0000 60011 70014 T00780078 10078 20067 53002
  • 141115Z AUTO 01014KT 10SM -RA OVC006 07/07 A3009 RMK AO2 P0000 T00720072
  • 141056Z AUTO 36014KT 6SM RA BR OVC007 07/07 A3010 RMK AO2 SLP193 P0005 T00720072

TAF AMD TAF KNGP
Valid from the 14 at 10:00 until the 15 at 07:00 UTC


1410/1507 36013KT 9999 -RA SCT010 OVC025 641109 642005 QNH3007INS
TEMPO 1410/1413 36016G24KT 4800 RA BR OVC006
FM141300 01015KT 9999 FEW008 BKN012 OVC035 641109 642005 QNH3012INS
TEMPO 1413/1416 8000 -RA BR BKN007 OVC012
FM141600 36016G24KT 9999 FEW007 BKN012 OVC028 600000 QNH3016INS
TEMPO 1416/1419 8000 -RA BR BKN007 OVC012
TEMPO 1419/1421 35018G26KT 8000 -RA BR BKN007 OVC012
FM142100 35018G26KT 9999 FEW009 BKN014 OVC025 510003 QNH3016INS
TEMPO 1421/1423 9000 -RA BR BKN009 OVC014
FM142300 36022G30KT 9999 FEW008 OVC012 510003 QNH3021INS
FM150400 36016G24KT 9999 FEW008 OVC012 500000 QNH3033INS AUTOMATED SENSOR METWATCH 1410 TIL 1412 T06/1412Z T12/1420Z AMD 1010 FN20044



MET'MAP, your aeronautical weather chart ! - Copyright ORBIFLY December 2007 - Disclaimer

ORBIFLY MET'MAP TEAM :

Programming & Development : Alexandra Zaïnal
Concept & Development : Baudouin d'Aumeries
Co-Development & Prog : Marc-Olivier Méhu
Technical & hardware support : Manuel Goepfert

Contact : metmap@orbifly.com




SOURCES & CREDITS :

   NOAA       Earth
Advisory